sensor_id;sensor_type;location;lat;lon;timestamp;P1;durP1;ratioP1;P2;durP2;ratioP2
5622;SDS011;2833;50.432;10.706;2023-04-15T00:00:50;3.33;;;3.03;;
5622;SDS011;2833;50.432;10.706;2023-04-15T00:03:16;3.57;;;3.27;;
5622;SDS011;2833;50.432;10.706;2023-04-15T00:05:41;4.43;;;3.47;;
5622;SDS011;2833;50.432;10.706;2023-04-15T00:08:07;3.37;;;2.90;;
5622;SDS011;2833;50.432;10.706;2023-04-15T00:10:32;5.00;;;3.80;;
5622;SDS011;2833;50.432;10.706;2023-04-15T00:12:57;4.47;;;3.63;;
5622;SDS011;2833;50.432;10.706;2023-04-15T00:15:22;6.90;;;3.80;;
5622;SDS011;2833;50.432;10.706;2023-04-15T00:17:49;3.83;;;3.47;;
5622;SDS011;2833;50.432;10.706;2023-04-15T00:20:14;3.33;;;3.03;;
5622;SDS011;2833;50.432;10.706;2023-04-15T00:22:40;4.60;;;2.90;;
5622;SDS011;2833;50.432;10.706;2023-04-15T00:25:05;3.80;;;3.03;;
5622;SDS011;2833;50.432;10.706;2023-04-15T00:27:30;4.00;;;3.70;;
5622;SDS011;2833;50.432;10.706;2023-04-15T00:29:56;4.37;;;3.53;;
5622;SDS011;2833;50.432;10.706;2023-04-15T00:32:21;5.37;;;3.90;;
5622;SDS011;2833;50.432;10.706;2023-04-15T00:34:47;4.63;;;4.10;;
5622;SDS011;2833;50.432;10.706;2023-04-15T00:37:13;6.77;;;3.93;;
5622;SDS011;2833;50.432;10.706;2023-04-15T00:39:38;4.80;;;4.07;;
5622;SDS011;2833;50.432;10.706;2023-04-15T00:42:04;4.17;;;3.87;;
5622;SDS011;2833;50.432;10.706;2023-04-15T00:44:29;4.70;;;3.73;;
5622;SDS011;2833;50.432;10.706;2023-04-15T00:46:54;4.67;;;4.10;;
5622;SDS011;2833;50.432;10.706;2023-04-15T00:49:20;4.93;;;4.07;;
5622;SDS011;2833;50.432;10.706;2023-04-15T00:51:46;5.93;;;4.33;;
5622;SDS011;2833;50.432;10.706;2023-04-15T00:54:11;6.80;;;4.33;;
5622;SDS011;2833;50.432;10.706;2023-04-15T00:56:37;5.90;;;4.13;;
5622;SDS011;2833;50.432;10.706;2023-04-15T00:59:06;5.87;;;4.10;;
5622;SDS011;2833;50.432;10.706;2023-04-15T01:01:33;6.33;;;4.70;;
5622;SDS011;2833;50.432;10.706;2023-04-15T01:03:59;4.60;;;3.93;;
5622;SDS011;2833;50.432;10.706;2023-04-15T01:06:24;6.50;;;3.67;;
5622;SDS011;2833;50.432;10.706;2023-04-15T01:08:51;8.10;;;5.17;;
5622;SDS011;2833;50.432;10.706;2023-04-15T01:11:16;5.67;;;4.00;;
5622;SDS011;2833;50.432;10.706;2023-04-15T01:13:41;6.80;;;4.07;;
5622;SDS011;2833;50.432;10.706;2023-04-15T01:16:07;4.97;;;4.30;;
5622;SDS011;2833;50.432;10.706;2023-04-15T01:18:32;5.60;;;4.40;;
5622;SDS011;2833;50.432;10.706;2023-04-15T01:20:59;4.90;;;4.13;;
5622;SDS011;2833;50.432;10.706;2023-04-15T01:23:25;4.73;;;4.13;;
5622;SDS011;2833;50.432;10.706;2023-04-15T01:25:51;5.33;;;4.57;;
5622;SDS011;2833;50.432;10.706;2023-04-15T01:28:17;6.50;;;4.40;;
5622;SDS011;2833;50.432;10.706;2023-04-15T01:30:42;5.23;;;4.70;;
5622;SDS011;2833;50.432;10.706;2023-04-15T01:33:08;4.60;;;4.03;;
5622;SDS011;2833;50.432;10.706;2023-04-15T01:35:33;5.53;;;4.63;;
5622;SDS011;2833;50.432;10.706;2023-04-15T01:38:01;5.07;;;4.20;;
5622;SDS011;2833;50.432;10.706;2023-04-15T01:40:27;6.53;;;4.03;;
5622;SDS011;2833;50.432;10.706;2023-04-15T01:42:53;6.40;;;4.80;;
5622;SDS011;2833;50.432;10.706;2023-04-15T01:45:18;4.57;;;4.10;;
5622;SDS011;2833;50.432;10.706;2023-04-15T01:47:43;4.90;;;4.30;;
5622;SDS011;2833;50.432;10.706;2023-04-15T01:50:08;5.83;;;4.37;;
5622;SDS011;2833;50.432;10.706;2023-04-15T01:52:33;5.67;;;4.10;;
5622;SDS011;2833;50.432;10.706;2023-04-15T01:54:59;5.90;;;4.63;;
5622;SDS011;2833;50.432;10.706;2023-04-15T01:57:24;8.93;;;4.00;;
5622;SDS011;2833;50.432;10.706;2023-04-15T01:59:49;4.67;;;4.00;;
5622;SDS011;2833;50.432;10.706;2023-04-15T02:02:15;6.30;;;4.10;;
5622;SDS011;2833;50.432;10.706;2023-04-15T02:04:40;4.80;;;4.00;;
5622;SDS011;2833;50.432;10.706;2023-04-15T02:07:05;5.20;;;4.40;;
5622;SDS011;2833;50.432;10.706;2023-04-15T02:09:31;5.60;;;4.30;;
5622;SDS011;2833;50.432;10.706;2023-04-15T02:11:56;5.70;;;4.53;;
5622;SDS011;2833;50.432;10.706;2023-04-15T02:14:21;6.30;;;4.60;;
5622;SDS011;2833;50.432;10.706;2023-04-15T02:16:46;6.73;;;4.40;;
5622;SDS011;2833;50.432;10.706;2023-04-15T02:19:11;5.07;;;3.83;;
5622;SDS011;2833;50.432;10.706;2023-04-15T02:21:37;5.10;;;4.10;;
5622;SDS011;2833;50.432;10.706;2023-04-15T02:24:03;5.30;;;4.07;;
5622;SDS011;2833;50.432;10.706;2023-04-15T02:26:29;5.23;;;4.37;;
5622;SDS011;2833;50.432;10.706;2023-04-15T02:28:56;5.87;;;4.20;;
5622;SDS011;2833;50.432;10.706;2023-04-15T02:31:21;6.37;;;4.90;;
5622;SDS011;2833;50.432;10.706;2023-04-15T02:33:47;4.93;;;4.13;;
5622;SDS011;2833;50.432;10.706;2023-04-15T02:36:12;6.27;;;4.57;;
5622;SDS011;2833;50.432;10.706;2023-04-15T02:38:37;6.10;;;4.40;;
5622;SDS011;2833;50.432;10.706;2023-04-15T02:41:04;8.07;;;4.90;;
5622;SDS011;2833;50.432;10.706;2023-04-15T02:43:29;5.70;;;4.30;;
5622;SDS011;2833;50.432;10.706;2023-04-15T02:45:55;9.33;;;4.83;;
5622;SDS011;2833;50.432;10.706;2023-04-15T02:48:20;7.93;;;5.27;;
5622;SDS011;2833;50.432;10.706;2023-04-15T02:50:46;7.70;;;4.63;;
5622;SDS011;2833;50.432;10.706;2023-04-15T02:53:11;6.10;;;4.80;;
5622;SDS011;2833;50.432;10.706;2023-04-15T02:55:38;5.90;;;4.70;;
5622;SDS011;2833;50.432;10.706;2023-04-15T02:58:03;7.20;;;4.13;;
5622;SDS011;2833;50.432;10.706;2023-04-15T03:00:29;4.93;;;4.30;;
5622;SDS011;2833;50.432;10.706;2023-04-15T03:03:00;6.83;;;5.00;;
5622;SDS011;2833;50.432;10.706;2023-04-15T03:05:25;7.13;;;4.90;;
5622;SDS011;2833;50.432;10.706;2023-04-15T03:07:51;7.23;;;4.93;;
5622;SDS011;2833;50.432;10.706;2023-04-15T03:10:16;5.20;;;4.57;;
5622;SDS011;2833;50.432;10.706;2023-04-15T03:12:41;6.17;;;4.80;;
5622;SDS011;2833;50.432;10.706;2023-04-15T03:15:07;5.93;;;4.47;;
5622;SDS011;2833;50.432;10.706;2023-04-15T03:17:32;7.03;;;4.10;;
5622;SDS011;2833;50.432;10.706;2023-04-15T03:19:57;7.07;;;5.17;;
5622;SDS011;2833;50.432;10.706;2023-04-15T03:22:23;7.67;;;5.00;;
5622;SDS011;2833;50.432;10.706;2023-04-15T03:24:49;6.47;;;4.60;;
5622;SDS011;2833;50.432;10.706;2023-04-15T03:27:14;5.87;;;4.77;;
5622;SDS011;2833;50.432;10.706;2023-04-15T03:29:39;5.30;;;4.43;;
5622;SDS011;2833;50.432;10.706;2023-04-15T03:32:05;5.90;;;4.50;;
5622;SDS011;2833;50.432;10.706;2023-04-15T03:34:30;6.80;;;4.97;;
5622;SDS011;2833;50.432;10.706;2023-04-15T03:36:56;6.20;;;4.30;;
5622;SDS011;2833;50.432;10.706;2023-04-15T03:39:21;8.53;;;5.23;;
5622;SDS011;2833;50.432;10.706;2023-04-15T03:41:46;5.87;;;4.47;;
5622;SDS011;2833;50.432;10.706;2023-04-15T03:44:11;7.50;;;5.07;;
5622;SDS011;2833;50.432;10.706;2023-04-15T03:46:36;12.10;;;8.27;;
5622;SDS011;2833;50.432;10.706;2023-04-15T03:49:02;21.13;;;11.90;;
5622;SDS011;2833;50.432;10.706;2023-04-15T03:51:27;15.10;;;10.10;;
5622;SDS011;2833;50.432;10.706;2023-04-15T03:53:52;24.13;;;13.90;;
5622;SDS011;2833;50.432;10.706;2023-04-15T03:56:17;22.57;;;15.37;;
5622;SDS011;2833;50.432;10.706;2023-04-15T03:58:42;22.40;;;15.23;;
5622;SDS011;2833;50.432;10.706;2023-04-15T04:01:08;16.70;;;9.90;;
5622;SDS011;2833;50.432;10.706;2023-04-15T04:03:33;29.70;;;13.00;;
5622;SDS011;2833;50.432;10.706;2023-04-15T04:05:58;19.43;;;9.87;;
5622;SDS011;2833;50.432;10.706;2023-04-15T04:08:23;15.80;;;8.80;;
5622;SDS011;2833;50.432;10.706;2023-04-15T04:10:49;9.50;;;6.00;;
5622;SDS011;2833;50.432;10.706;2023-04-15T04:13:14;10.80;;;7.10;;
5622;SDS011;2833;50.432;10.706;2023-04-15T04:15:40;7.13;;;5.67;;
5622;SDS011;2833;50.432;10.706;2023-04-15T04:18:05;11.83;;;6.13;;
5622;SDS011;2833;50.432;10.706;2023-04-15T04:20:31;6.00;;;4.93;;
5622;SDS011;2833;50.432;10.706;2023-04-15T04:22:56;9.70;;;6.17;;
5622;SDS011;2833;50.432;10.706;2023-04-15T04:25:22;13.43;;;5.73;;
5622;SDS011;2833;50.432;10.706;2023-04-15T04:27:47;8.50;;;5.10;;
5622;SDS011;2833;50.432;10.706;2023-04-15T04:30:12;12.50;;;7.97;;
5622;SDS011;2833;50.432;10.706;2023-04-15T04:32:37;10.60;;;6.30;;
5622;SDS011;2833;50.432;10.706;2023-04-15T04:35:03;10.40;;;5.97;;
5622;SDS011;2833;50.432;10.706;2023-04-15T04:37:28;8.07;;;5.20;;
5622;SDS011;2833;50.432;10.706;2023-04-15T04:39:53;7.20;;;4.87;;
5622;SDS011;2833;50.432;10.706;2023-04-15T04:42:18;9.17;;;6.03;;
5622;SDS011;2833;50.432;10.706;2023-04-15T04:44:44;7.00;;;4.90;;
5622;SDS011;2833;50.432;10.706;2023-04-15T04:47:09;7.70;;;5.37;;
5622;SDS011;2833;50.432;10.706;2023-04-15T04:49:35;8.37;;;5.90;;
5622;SDS011;2833;50.432;10.706;2023-04-15T04:52:00;8.03;;;6.27;;
5622;SDS011;2833;50.432;10.706;2023-04-15T04:54:26;10.53;;;5.10;;
5622;SDS011;2833;50.432;10.706;2023-04-15T04:56:51;10.37;;;6.47;;
5622;SDS011;2833;50.432;10.706;2023-04-15T04:59:17;11.17;;;6.97;;
5622;SDS011;2833;50.432;10.706;2023-04-15T05:01:42;7.83;;;5.70;;
5622;SDS011;2833;50.432;10.706;2023-04-15T05:04:07;10.80;;;7.80;;
5622;SDS011;2833;50.432;10.706;2023-04-15T05:06:32;8.27;;;5.37;;
5622;SDS011;2833;50.432;10.706;2023-04-15T05:08:59;8.63;;;6.03;;
5622;SDS011;2833;50.432;10.706;2023-04-15T05:11:25;10.60;;;6.33;;
5622;SDS011;2833;50.432;10.706;2023-04-15T05:13:50;10.87;;;7.27;;
5622;SDS011;2833;50.432;10.706;2023-04-15T05:16:15;10.60;;;6.70;;
5622;SDS011;2833;50.432;10.706;2023-04-15T05:18:41;11.43;;;6.67;;
5622;SDS011;2833;50.432;10.706;2023-04-15T05:21:06;12.80;;;6.90;;
5622;SDS011;2833;50.432;10.706;2023-04-15T05:23:31;11.77;;;6.77;;
5622;SDS011;2833;50.432;10.706;2023-04-15T05:25:56;8.10;;;6.10;;
5622;SDS011;2833;50.432;10.706;2023-04-15T05:28:22;8.87;;;6.20;;
5622;SDS011;2833;50.432;10.706;2023-04-15T05:30:47;8.30;;;5.53;;
5622;SDS011;2833;50.432;10.706;2023-04-15T05:33:12;13.77;;;6.40;;
5622;SDS011;2833;50.432;10.706;2023-04-15T05:35:37;8.00;;;5.13;;
5622;SDS011;2833;50.432;10.706;2023-04-15T05:38:02;8.67;;;5.77;;
5622;SDS011;2833;50.432;10.706;2023-04-15T05:40:29;11.60;;;6.03;;
5622;SDS011;2833;50.432;10.706;2023-04-15T05:42:54;8.80;;;6.27;;
5622;SDS011;2833;50.432;10.706;2023-04-15T05:45:20;8.57;;;6.23;;
5622;SDS011;2833;50.432;10.706;2023-04-15T05:47:45;9.90;;;6.00;;
5622;SDS011;2833;50.432;10.706;2023-04-15T05:50:10;7.63;;;4.93;;
5622;SDS011;2833;50.432;10.706;2023-04-15T05:52:36;51.30;;;20.37;;
5622;SDS011;2833;50.432;10.706;2023-04-15T05:55:01;9.70;;;6.90;;
5622;SDS011;2833;50.432;10.706;2023-04-15T05:57:26;8.40;;;5.43;;
5622;SDS011;2833;50.432;10.706;2023-04-15T05:59:51;10.50;;;6.97;;
5622;SDS011;2833;50.432;10.706;2023-04-15T06:02:17;10.57;;;7.37;;
5622;SDS011;2833;50.432;10.706;2023-04-15T06:04:42;7.00;;;5.37;;
5622;SDS011;2833;50.432;10.706;2023-04-15T06:07:07;9.87;;;6.27;;
5622;SDS011;2833;50.432;10.706;2023-04-15T06:09:33;11.50;;;7.00;;
5622;SDS011;2833;50.432;10.706;2023-04-15T06:11:58;10.47;;;6.30;;
5622;SDS011;2833;50.432;10.706;2023-04-15T06:14:23;9.17;;;6.50;;
5622;SDS011;2833;50.432;10.706;2023-04-15T06:16:49;9.83;;;6.63;;
5622;SDS011;2833;50.432;10.706;2023-04-15T06:19:14;10.50;;;6.50;;
5622;SDS011;2833;50.432;10.706;2023-04-15T06:21:39;13.13;;;7.53;;
5622;SDS011;2833;50.432;10.706;2023-04-15T06:24:05;10.53;;;6.30;;
5622;SDS011;2833;50.432;10.706;2023-04-15T06:26:30;14.50;;;7.47;;
5622;SDS011;2833;50.432;10.706;2023-04-15T06:28:55;15.60;;;7.53;;
5622;SDS011;2833;50.432;10.706;2023-04-15T06:31:21;13.80;;;7.43;;
5622;SDS011;2833;50.432;10.706;2023-04-15T06:33:46;11.30;;;7.37;;
5622;SDS011;2833;50.432;10.706;2023-04-15T06:36:11;17.80;;;10.57;;
5622;SDS011;2833;50.432;10.706;2023-04-15T06:38:36;17.37;;;10.20;;
5622;SDS011;2833;50.432;10.706;2023-04-15T06:41:02;13.63;;;8.00;;
5622;SDS011;2833;50.432;10.706;2023-04-15T06:43:27;15.50;;;8.60;;
5622;SDS011;2833;50.432;10.706;2023-04-15T06:45:52;15.93;;;7.97;;
5622;SDS011;2833;50.432;10.706;2023-04-15T06:48:17;10.57;;;6.23;;
5622;SDS011;2833;50.432;10.706;2023-04-15T06:50:43;9.53;;;6.93;;
5622;SDS011;2833;50.432;10.706;2023-04-15T06:53:08;9.17;;;6.40;;
5622;SDS011;2833;50.432;10.706;2023-04-15T06:55:33;11.67;;;7.80;;
5622;SDS011;2833;50.432;10.706;2023-04-15T06:57:58;7.93;;;5.20;;
5622;SDS011;2833;50.432;10.706;2023-04-15T07:00:23;9.23;;;5.90;;
5622;SDS011;2833;50.432;10.706;2023-04-15T07:02:49;7.87;;;5.50;;
5622;SDS011;2833;50.432;10.706;2023-04-15T07:05:15;9.37;;;6.00;;
5622;SDS011;2833;50.432;10.706;2023-04-15T07:07:40;6.50;;;4.50;;
5622;SDS011;2833;50.432;10.706;2023-04-15T07:10:06;6.73;;;4.60;;
5622;SDS011;2833;50.432;10.706;2023-04-15T07:12:31;9.30;;;5.60;;
5622;SDS011;2833;50.432;10.706;2023-04-15T07:14:56;8.23;;;5.67;;
5622;SDS011;2833;50.432;10.706;2023-04-15T07:17:22;6.63;;;5.20;;
5622;SDS011;2833;50.432;10.706;2023-04-15T07:19:47;4.87;;;3.80;;
5622;SDS011;2833;50.432;10.706;2023-04-15T07:22:12;7.40;;;4.83;;
5622;SDS011;2833;50.432;10.706;2023-04-15T07:24:37;5.63;;;4.43;;
5622;SDS011;2833;50.432;10.706;2023-04-15T07:27:02;8.70;;;4.80;;
5622;SDS011;2833;50.432;10.706;2023-04-15T07:29:28;8.00;;;5.40;;
5622;SDS011;2833;50.432;10.706;2023-04-15T07:31:53;6.53;;;4.80;;
5622;SDS011;2833;50.432;10.706;2023-04-15T07:34:18;5.90;;;4.60;;
5622;SDS011;2833;50.432;10.706;2023-04-15T07:36:43;7.53;;;5.33;;
5622;SDS011;2833;50.432;10.706;2023-04-15T07:39:09;9.67;;;6.53;;
5622;SDS011;2833;50.432;10.706;2023-04-15T07:41:35;11.60;;;8.07;;
5622;SDS011;2833;50.432;10.706;2023-04-15T07:44:00;10.17;;;7.17;;
5622;SDS011;2833;50.432;10.706;2023-04-15T07:46:25;18.40;;;11.33;;
5622;SDS011;2833;50.432;10.706;2023-04-15T07:48:51;13.50;;;8.23;;
5622;SDS011;2833;50.432;10.706;2023-04-15T07:51:16;8.77;;;5.77;;
5622;SDS011;2833;50.432;10.706;2023-04-15T07:53:43;9.53;;;5.10;;
5622;SDS011;2833;50.432;10.706;2023-04-15T07:56:09;10.83;;;6.70;;
5622;SDS011;2833;50.432;10.706;2023-04-15T07:58:34;10.40;;;6.20;;
5622;SDS011;2833;50.432;10.706;2023-04-15T08:00:59;8.57;;;5.17;;
5622;SDS011;2833;50.432;10.706;2023-04-15T08:03:24;9.60;;;5.57;;
5622;SDS011;2833;50.432;10.706;2023-04-15T08:05:50;12.10;;;6.77;;
5622;SDS011;2833;50.432;10.706;2023-04-15T08:08:15;9.27;;;5.83;;
5622;SDS011;2833;50.432;10.706;2023-04-15T08:10:40;15.70;;;7.20;;
5622;SDS011;2833;50.432;10.706;2023-04-15T08:13:06;15.53;;;9.13;;
5622;SDS011;2833;50.432;10.706;2023-04-15T08:15:31;8.07;;;4.97;;
5622;SDS011;2833;50.432;10.706;2023-04-15T08:17:57;7.80;;;4.17;;
5622;SDS011;2833;50.432;10.706;2023-04-15T08:20:24;14.27;;;8.10;;
5622;SDS011;2833;50.432;10.706;2023-04-15T08:22:49;8.50;;;6.00;;
5622;SDS011;2833;50.432;10.706;2023-04-15T08:25:16;11.60;;;6.63;;
5622;SDS011;2833;50.432;10.706;2023-04-15T08:27:41;5.63;;;4.47;;
5622;SDS011;2833;50.432;10.706;2023-04-15T08:30:06;12.87;;;7.20;;
5622;SDS011;2833;50.432;10.706;2023-04-15T08:32:32;20.77;;;8.17;;
5622;SDS011;2833;50.432;10.706;2023-04-15T08:34:57;34.23;;;12.43;;
5622;SDS011;2833;50.432;10.706;2023-04-15T08:37:22;47.20;;;17.87;;
5622;SDS011;2833;50.432;10.706;2023-04-15T08:39:48;33.40;;;15.77;;
5622;SDS011;2833;50.432;10.706;2023-04-15T08:42:16;41.00;;;14.70;;
5622;SDS011;2833;50.432;10.706;2023-04-15T08:44:42;33.53;;;12.20;;
5622;SDS011;2833;50.432;10.706;2023-04-15T08:47:08;20.77;;;9.30;;
5622;SDS011;2833;50.432;10.706;2023-04-15T08:49:38;42.73;;;14.10;;
5622;SDS011;2833;50.432;10.706;2023-04-15T08:52:03;15.10;;;7.20;;
5622;SDS011;2833;50.432;10.706;2023-04-15T08:54:29;14.43;;;7.40;;
5622;SDS011;2833;50.432;10.706;2023-04-15T08:56:54;26.73;;;14.47;;
5622;SDS011;2833;50.432;10.706;2023-04-15T08:59:21;69.60;;;28.53;;
5622;SDS011;2833;50.432;10.706;2023-04-15T09:01:48;51.93;;;21.27;;
5622;SDS011;2833;50.432;10.706;2023-04-15T09:04:13;19.70;;;10.40;;
5622;SDS011;2833;50.432;10.706;2023-04-15T09:06:39;30.07;;;12.93;;
5622;SDS011;2833;50.432;10.706;2023-04-15T09:09:04;45.30;;;13.97;;
5622;SDS011;2833;50.432;10.706;2023-04-15T09:11:30;18.90;;;10.10;;
5622;SDS011;2833;50.432;10.706;2023-04-15T09:13:55;21.90;;;10.80;;
5622;SDS011;2833;50.432;10.706;2023-04-15T09:16:20;17.83;;;8.27;;
5622;SDS011;2833;50.432;10.706;2023-04-15T09:18:45;15.60;;;9.30;;
5622;SDS011;2833;50.432;10.706;2023-04-15T09:21:11;10.30;;;6.10;;
5622;SDS011;2833;50.432;10.706;2023-04-15T09:23:38;13.17;;;7.40;;
5622;SDS011;2833;50.432;10.706;2023-04-15T09:26:04;26.30;;;10.80;;
5622;SDS011;2833;50.432;10.706;2023-04-15T09:28:30;10.23;;;6.17;;
5622;SDS011;2833;50.432;10.706;2023-04-15T09:30:59;10.33;;;6.40;;
5622;SDS011;2833;50.432;10.706;2023-04-15T09:33:25;7.37;;;5.10;;
5622;SDS011;2833;50.432;10.706;2023-04-15T09:38:22;5.60;;;4.40;;
5622;SDS011;2833;50.432;10.706;2023-04-15T09:40:47;5.93;;;4.53;;
5622;SDS011;2833;50.432;10.706;2023-04-15T09:43:12;5.90;;;4.20;;
5622;SDS011;2833;50.432;10.706;2023-04-15T09:45:38;4.73;;;4.00;;
5622;SDS011;2833;50.432;10.706;2023-04-15T09:48:19;5.90;;;4.77;;
5622;SDS011;2833;50.432;10.706;2023-04-15T09:50:45;4.47;;;3.43;;
5622;SDS011;2833;50.432;10.706;2023-04-15T09:53:14;7.83;;;4.47;;
5622;SDS011;2833;50.432;10.706;2023-04-15T09:55:42;5.47;;;4.10;;
5622;SDS011;2833;50.432;10.706;2023-04-15T09:58:08;6.33;;;4.87;;
5622;SDS011;2833;50.432;10.706;2023-04-15T10:00:34;8.37;;;5.10;;
5622;SDS011;2833;50.432;10.706;2023-04-15T10:03:00;13.33;;;6.97;;
5622;SDS011;2833;50.432;10.706;2023-04-15T10:05:25;17.33;;;9.03;;
5622;SDS011;2833;50.432;10.706;2023-04-15T10:07:51;17.30;;;8.83;;
5622;SDS011;2833;50.432;10.706;2023-04-15T10:10:16;11.50;;;7.30;;
5622;SDS011;2833;50.432;10.706;2023-04-15T10:12:42;12.60;;;6.40;;
5622;SDS011;2833;50.432;10.706;2023-04-15T10:15:10;6.40;;;4.43;;
5622;SDS011;2833;50.432;10.706;2023-04-15T10:17:38;5.40;;;3.67;;
5622;SDS011;2833;50.432;10.706;2023-04-15T10:20:06;3.93;;;3.37;;
5622;SDS011;2833;50.432;10.706;2023-04-15T10:22:34;4.77;;;3.57;;
5622;SDS011;2833;50.432;10.706;2023-04-15T10:25:00;4.23;;;3.83;;
5622;SDS011;2833;50.432;10.706;2023-04-15T10:27:26;3.23;;;2.93;;
5622;SDS011;2833;50.432;10.706;2023-04-15T10:29:52;5.20;;;3.17;;
5622;SDS011;2833;50.432;10.706;2023-04-15T10:32:18;3.50;;;3.07;;
5622;SDS011;2833;50.432;10.706;2023-04-15T10:34:44;3.37;;;2.90;;
5622;SDS011;2833;50.432;10.706;2023-04-15T10:37:09;3.13;;;2.83;;
5622;SDS011;2833;50.432;10.706;2023-04-15T10:42:14;5.20;;;3.70;;
5622;SDS011;2833;50.432;10.706;2023-04-15T10:44:58;4.60;;;3.30;;
5622;SDS011;2833;50.432;10.706;2023-04-15T10:47:24;3.63;;;3.30;;
5622;SDS011;2833;50.432;10.706;2023-04-15T10:49:59;4.37;;;3.13;;
5622;SDS011;2833;50.432;10.706;2023-04-15T10:52:25;2.97;;;2.67;;
5622;SDS011;2833;50.432;10.706;2023-04-15T10:55:01;3.30;;;3.00;;
5622;SDS011;2833;50.432;10.706;2023-04-15T10:57:27;2.93;;;2.63;;
5622;SDS011;2833;50.432;10.706;2023-04-15T10:59:58;5.63;;;3.63;;
5622;SDS011;2833;50.432;10.706;2023-04-15T11:02:40;6.53;;;4.97;;
5622;SDS011;2833;50.432;10.706;2023-04-15T11:05:06;5.70;;;4.17;;
5622;SDS011;2833;50.432;10.706;2023-04-15T11:07:32;5.37;;;3.27;;
5622;SDS011;2833;50.432;10.706;2023-04-15T11:09:57;3.57;;;2.40;;
5622;SDS011;2833;50.432;10.706;2023-04-15T11:12:22;2.20;;;1.80;;
5622;SDS011;2833;50.432;10.706;2023-04-15T11:14:57;3.47;;;3.17;;
5622;SDS011;2833;50.432;10.706;2023-04-15T11:17:26;3.77;;;2.77;;
5622;SDS011;2833;50.432;10.706;2023-04-15T11:19:51;3.40;;;1.93;;
5622;SDS011;2833;50.432;10.706;2023-04-15T11:22:16;2.73;;;2.40;;
5622;SDS011;2833;50.432;10.706;2023-04-15T11:24:48;3.10;;;2.80;;
5622;SDS011;2833;50.432;10.706;2023-04-15T11:27:20;2.73;;;2.10;;
5622;SDS011;2833;50.432;10.706;2023-04-15T11:29:45;4.63;;;2.63;;
5622;SDS011;2833;50.432;10.706;2023-04-15T11:32:10;3.17;;;2.40;;
5622;SDS011;2833;50.432;10.706;2023-04-15T11:34:35;4.23;;;3.40;;
5622;SDS011;2833;50.432;10.706;2023-04-15T11:37:04;2.70;;;2.00;;
5622;SDS011;2833;50.432;10.706;2023-04-15T11:39:30;5.00;;;2.60;;
5622;SDS011;2833;50.432;10.706;2023-04-15T11:41:55;5.43;;;2.73;;
5622;SDS011;2833;50.432;10.706;2023-04-15T11:44:20;2.47;;;2.27;;
5622;SDS011;2833;50.432;10.706;2023-04-15T11:46:46;2.70;;;2.50;;
5622;SDS011;2833;50.432;10.706;2023-04-15T11:49:11;3.60;;;2.50;;
5622;SDS011;2833;50.432;10.706;2023-04-15T11:51:36;14.10;;;6.60;;
5622;SDS011;2833;50.432;10.706;2023-04-15T11:54:01;18.77;;;6.67;;
5622;SDS011;2833;50.432;10.706;2023-04-15T11:56:27;6.33;;;4.67;;
5622;SDS011;2833;50.432;10.706;2023-04-15T11:58:56;3.23;;;2.70;;
5622;SDS011;2833;50.432;10.706;2023-04-15T12:03:56;1.33;;;1.20;;
5622;SDS011;2833;50.432;10.706;2023-04-15T12:06:24;2.13;;;1.90;;
5622;SDS011;2833;50.432;10.706;2023-04-15T12:11:26;4.90;;;2.80;;
5622;SDS011;2833;50.432;10.706;2023-04-15T12:14:34;11.67;;;3.73;;
5622;SDS011;2833;50.432;10.706;2023-04-15T12:16:40;4.27;;;3.00;;
5622;SDS011;2833;50.432;10.706;2023-04-15T12:19:08;5.27;;;3.70;;
5622;SDS011;2833;50.432;10.706;2023-04-15T12:21:35;5.30;;;4.30;;
5622;SDS011;2833;50.432;10.706;2023-04-15T12:24:01;7.37;;;4.20;;
5622;SDS011;2833;50.432;10.706;2023-04-15T12:26:27;13.27;;;7.83;;
5622;SDS011;2833;50.432;10.706;2023-04-15T12:29:08;5.47;;;4.07;;
5622;SDS011;2833;50.432;10.706;2023-04-15T12:31:34;18.47;;;9.33;;
5622;SDS011;2833;50.432;10.706;2023-04-15T12:34:00;12.97;;;7.10;;
5622;SDS011;2833;50.432;10.706;2023-04-15T12:36:26;24.33;;;10.43;;
5622;SDS011;2833;50.432;10.706;2023-04-15T12:38:51;12.30;;;7.13;;
5622;SDS011;2833;50.432;10.706;2023-04-15T12:41:16;11.67;;;5.23;;
5622;SDS011;2833;50.432;10.706;2023-04-15T12:43:45;22.57;;;12.43;;
5622;SDS011;2833;50.432;10.706;2023-04-15T12:46:11;12.03;;;6.40;;
5622;SDS011;2833;50.432;10.706;2023-04-15T12:48:36;16.63;;;9.60;;
5622;SDS011;2833;50.432;10.706;2023-04-15T12:51:01;8.50;;;4.77;;
5622;SDS011;2833;50.432;10.706;2023-04-15T12:53:26;7.20;;;3.90;;
5622;SDS011;2833;50.432;10.706;2023-04-15T12:55:52;7.67;;;4.97;;
5622;SDS011;2833;50.432;10.706;2023-04-15T12:58:17;13.83;;;5.40;;
5622;SDS011;2833;50.432;10.706;2023-04-15T13:00:44;4.50;;;3.53;;
5622;SDS011;2833;50.432;10.706;2023-04-15T13:03:09;7.10;;;4.17;;
5622;SDS011;2833;50.432;10.706;2023-04-15T13:05:34;13.10;;;5.20;;
5622;SDS011;2833;50.432;10.706;2023-04-15T13:08:01;3.90;;;2.60;;
5622;SDS011;2833;50.432;10.706;2023-04-15T13:10:26;8.80;;;4.17;;
5622;SDS011;2833;50.432;10.706;2023-04-15T13:12:52;7.47;;;4.60;;
5622;SDS011;2833;50.432;10.706;2023-04-15T13:15:18;8.53;;;4.63;;
5622;SDS011;2833;50.432;10.706;2023-04-15T13:17:44;6.90;;;3.57;;
5622;SDS011;2833;50.432;10.706;2023-04-15T13:20:10;13.27;;;5.83;;
5622;SDS011;2833;50.432;10.706;2023-04-15T13:22:35;13.83;;;6.57;;
5622;SDS011;2833;50.432;10.706;2023-04-15T13:25:00;11.07;;;6.33;;
5622;SDS011;2833;50.432;10.706;2023-04-15T13:27:25;16.10;;;8.87;;
5622;SDS011;2833;50.432;10.706;2023-04-15T13:29:51;20.90;;;9.00;;
5622;SDS011;2833;50.432;10.706;2023-04-15T13:32:16;16.27;;;6.53;;
5622;SDS011;2833;50.432;10.706;2023-04-15T13:34:41;11.70;;;6.67;;
5622;SDS011;2833;50.432;10.706;2023-04-15T13:37:07;13.80;;;6.90;;
5622;SDS011;2833;50.432;10.706;2023-04-15T13:39:32;6.83;;;4.30;;
5622;SDS011;2833;50.432;10.706;2023-04-15T13:41:57;9.57;;;6.00;;
5622;SDS011;2833;50.432;10.706;2023-04-15T13:44:23;6.27;;;4.13;;
5622;SDS011;2833;50.432;10.706;2023-04-15T13:46:48;5.97;;;4.80;;
5622;SDS011;2833;50.432;10.706;2023-04-15T13:49:13;3.50;;;2.90;;
5622;SDS011;2833;50.432;10.706;2023-04-15T13:51:38;5.20;;;4.13;;
5622;SDS011;2833;50.432;10.706;2023-04-15T13:54:04;4.70;;;3.47;;
5622;SDS011;2833;50.432;10.706;2023-04-15T13:56:29;3.37;;;2.90;;
5622;SDS011;2833;50.432;10.706;2023-04-15T13:58:55;4.00;;;3.27;;
5622;SDS011;2833;50.432;10.706;2023-04-15T14:01:22;5.97;;;4.60;;
5622;SDS011;2833;50.432;10.706;2023-04-15T14:03:48;3.30;;;3.00;;
5622;SDS011;2833;50.432;10.706;2023-04-15T14:06:13;3.23;;;2.93;;
5622;SDS011;2833;50.432;10.706;2023-04-15T14:08:38;2.93;;;2.43;;
5622;SDS011;2833;50.432;10.706;2023-04-15T14:11:03;2.07;;;1.97;;
5622;SDS011;2833;50.432;10.706;2023-04-15T14:13:28;4.03;;;3.23;;
5622;SDS011;2833;50.432;10.706;2023-04-15T14:15:54;6.40;;;3.33;;
5622;SDS011;2833;50.432;10.706;2023-04-15T14:18:19;5.10;;;2.90;;
5622;SDS011;2833;50.432;10.706;2023-04-15T14:20:44;2.77;;;2.20;;
5622;SDS011;2833;50.432;10.706;2023-04-15T14:23:09;2.77;;;2.17;;
5622;SDS011;2833;50.432;10.706;2023-04-15T14:25:34;1.73;;;1.63;;
5622;SDS011;2833;50.432;10.706;2023-04-15T14:28:00;1.87;;;1.70;;
5622;SDS011;2833;50.432;10.706;2023-04-15T14:30:26;3.03;;;2.60;;
5622;SDS011;2833;50.432;10.706;2023-04-15T14:32:51;2.93;;;2.63;;
5622;SDS011;2833;50.432;10.706;2023-04-15T14:35:16;4.17;;;2.87;;
5622;SDS011;2833;50.432;10.706;2023-04-15T14:37:41;2.17;;;1.97;;
5622;SDS011;2833;50.432;10.706;2023-04-15T14:40:06;2.90;;;2.60;;
5622;SDS011;2833;50.432;10.706;2023-04-15T14:42:32;2.80;;;2.00;;
5622;SDS011;2833;50.432;10.706;2023-04-15T14:44:57;1.57;;;1.47;;
5622;SDS011;2833;50.432;10.706;2023-04-15T14:47:22;1.60;;;1.50;;
5622;SDS011;2833;50.432;10.706;2023-04-15T14:49:48;1.77;;;1.67;;
5622;SDS011;2833;50.432;10.706;2023-04-15T14:52:13;2.20;;;1.73;;
5622;SDS011;2833;50.432;10.706;2023-04-15T14:54:38;1.73;;;1.63;;
5622;SDS011;2833;50.432;10.706;2023-04-15T14:57:03;4.03;;;2.37;;